sensor_id;sensor_type;location;lat;lon;timestamp;noise_LAeq;noise_LA_min;noise_LA_max;noise_LA01;noise_LA95
49215;Laerm;45943;53.148;8.204;2023-03-05T00:00:24;46.04;38.48;62.13;;
49215;Laerm;45943;53.148;8.204;2023-03-05T00:02:50;62.22;39.27;72.76;;
49215;Laerm;45943;53.148;8.204;2023-03-05T00:05:16;46.96;39.27;62.81;;
49215;Laerm;45943;53.148;8.204;2023-03-05T00:07:42;49.64;39.27;68.19;;
49215;Laerm;45943;53.148;8.204;2023-03-05T00:10:09;42.66;39.41;48.60;;
49215;Laerm;45943;53.148;8.204;2023-03-05T00:12:35;42.29;39.12;46.46;;
49215;Laerm;45943;53.148;8.204;2023-03-05T00:15:01;41.83;39.12;45.36;;
49215;Laerm;45943;53.148;8.204;2023-03-05T00:17:27;49.60;38.97;67.59;;
49215;Laerm;45943;53.148;8.204;2023-03-05T00:19:53;45.06;39.68;61.77;;
49215;Laerm;45943;53.148;8.204;2023-03-05T00:22:19;43.50;37.29;57.63;;
49215;Laerm;45943;53.148;8.204;2023-03-05T00:24:45;42.16;38.97;48.28;;
49215;Laerm;45943;53.148;8.204;2023-03-05T00:27:11;42.19;36.26;52.16;;
49215;Laerm;45943;53.148;8.204;2023-03-05T00:29:36;55.04;38.81;72.80;;
49215;Laerm;45943;53.148;8.204;2023-03-05T00:32:02;41.61;38.48;43.94;;
49215;Laerm;45943;53.148;8.204;2023-03-05T00:34:28;41.89;38.97;47.29;;
49215;Laerm;45943;53.148;8.204;2023-03-05T00:36:54;45.63;38.97;60.78;;
49215;Laerm;45943;53.148;8.204;2023-03-05T00:39:20;47.74;38.81;65.23;;
49215;Laerm;45943;53.148;8.204;2023-03-05T00:41:47;48.39;39.27;67.02;;
49215;Laerm;45943;53.148;8.204;2023-03-05T00:44:13;42.48;39.55;45.87;;
49215;Laerm;45943;53.148;8.204;2023-03-05T00:46:39;44.40;39.41;56.75;;
49215;Laerm;45943;53.148;8.204;2023-03-05T00:49:05;41.44;38.12;44.91;;
49215;Laerm;45943;53.148;8.204;2023-03-05T00:51:32;41.93;38.81;54.38;;
49215;Laerm;45943;53.148;8.204;2023-03-05T00:53:58;41.54;38.12;45.25;;
49215;Laerm;45943;53.148;8.204;2023-03-05T00:56:24;41.47;37.51;43.97;;
49215;Laerm;45943;53.148;8.204;2023-03-05T00:58:50;46.92;37.92;60.33;;
49215;Laerm;45943;53.148;8.204;2023-03-05T01:01:18;42.27;39.55;47.44;;
49215;Laerm;45943;53.148;8.204;2023-03-05T01:03:44;42.19;39.41;44.75;;
49215;Laerm;45943;53.148;8.204;2023-03-05T01:06:12;42.27;37.29;61.47;;
49215;Laerm;45943;53.148;8.204;2023-03-05T01:08:39;63.72;38.48;77.17;;
49215;Laerm;45943;53.148;8.204;2023-03-05T01:11:06;65.03;41.82;78.41;;
49215;Laerm;45943;53.148;8.204;2023-03-05T01:13:33;42.98;38.97;55.50;;
49215;Laerm;45943;53.148;8.204;2023-03-05T01:15:59;42.18;38.81;47.53;;
49215;Laerm;45943;53.148;8.204;2023-03-05T01:18:25;48.46;40.30;62.06;;
49215;Laerm;45943;53.148;8.204;2023-03-05T01:20:51;46.46;37.92;62.96;;
49215;Laerm;45943;53.148;8.204;2023-03-05T01:23:17;41.50;37.29;45.77;;
49215;Laerm;45943;53.148;8.204;2023-03-05T01:25:43;40.80;36.26;51.66;;
49215;Laerm;45943;53.148;8.204;2023-03-05T01:28:10;46.65;36.80;61.96;;
49215;Laerm;45943;53.148;8.204;2023-03-05T01:30:36;40.15;35.64;43.25;;
49215;Laerm;45943;53.148;8.204;2023-03-05T01:33:02;40.47;36.80;43.25;;
49215;Laerm;45943;53.148;8.204;2023-03-05T01:35:28;40.68;37.29;45.43;;
49215;Laerm;45943;53.148;8.204;2023-03-05T01:37:55;41.06;36.80;45.14;;
49215;Laerm;45943;53.148;8.204;2023-03-05T01:40:25;42.58;38.65;56.31;;
49215;Laerm;45943;53.148;8.204;2023-03-05T01:43:22;42.07;38.30;49.68;;
49215;Laerm;45943;53.148;8.204;2023-03-05T01:46:27;42.36;38.12;55.67;;
49215;Laerm;45943;53.148;8.204;2023-03-05T01:51:47;41.22;36.26;48.02;;
49215;Laerm;45943;53.148;8.204;2023-03-05T01:54:18;41.11;37.51;45.85;;
49215;Laerm;45943;53.148;8.204;2023-03-05T01:56:48;60.63;37.29;73.36;;
49215;Laerm;45943;53.148;8.204;2023-03-05T01:59:16;57.49;39.55;75.17;;
49215;Laerm;45943;53.148;8.204;2023-03-05T02:01:45;41.90;38.12;45.11;;
49215;Laerm;45943;53.148;8.204;2023-03-05T02:04:15;42.33;38.48;47.38;;
49215;Laerm;45943;53.148;8.204;2023-03-05T02:06:42;41.59;37.92;48.81;;
49215;Laerm;45943;53.148;8.204;2023-03-05T02:09:09;40.68;36.54;51.14;;
49215;Laerm;45943;53.148;8.204;2023-03-05T02:11:35;42.22;37.92;60.46;;
49215;Laerm;45943;53.148;8.204;2023-03-05T02:14:02;50.31;38.30;67.87;;
49215;Laerm;45943;53.148;8.204;2023-03-05T02:16:29;47.78;37.29;65.83;;
49215;Laerm;45943;53.148;8.204;2023-03-05T02:19:04;41.25;37.51;45.18;;
49215;Laerm;45943;53.148;8.204;2023-03-05T02:21:45;50.09;38.48;64.62;;
49215;Laerm;45943;53.148;8.204;2023-03-05T02:24:13;50.12;38.30;69.56;;
49215;Laerm;45943;53.148;8.204;2023-03-05T02:26:40;40.74;37.05;45.54;;
49215;Laerm;45943;53.148;8.204;2023-03-05T02:29:08;40.89;37.05;48.70;;
49215;Laerm;45943;53.148;8.204;2023-03-05T02:31:35;40.89;37.29;54.08;;
49215;Laerm;45943;53.148;8.204;2023-03-05T02:34:04;40.97;36.80;45.64;;
49215;Laerm;45943;53.148;8.204;2023-03-05T02:36:30;50.40;36.54;68.34;;
49215;Laerm;45943;53.148;8.204;2023-03-05T02:38:56;41.01;36.80;49.55;;
49215;Laerm;45943;53.148;8.204;2023-03-05T02:41:24;40.19;35.96;45.54;;
49215;Laerm;45943;53.148;8.204;2023-03-05T02:43:50;39.87;34.91;44.37;;
49215;Laerm;45943;53.148;8.204;2023-03-05T02:46:16;40.37;35.64;52.06;;
49215;Laerm;45943;53.148;8.204;2023-03-05T02:48:42;42.78;37.05;63.66;;
49215;Laerm;45943;53.148;8.204;2023-03-05T02:51:08;40.94;37.05;51.62;;
49215;Laerm;45943;53.148;8.204;2023-03-05T02:53:34;40.14;35.96;44.75;;
49215;Laerm;45943;53.148;8.204;2023-03-05T02:56:00;47.38;36.54;64.31;;
49215;Laerm;45943;53.148;8.204;2023-03-05T02:58:26;49.89;36.80;69.82;;
49215;Laerm;45943;53.148;8.204;2023-03-05T03:00:52;40.88;36.54;46.67;;
49215;Laerm;45943;53.148;8.204;2023-03-05T03:03:18;40.63;36.54;51.90;;
49215;Laerm;45943;53.148;8.204;2023-03-05T03:05:44;46.40;37.29;60.67;;
49215;Laerm;45943;53.148;8.204;2023-03-05T03:08:10;40.42;36.80;43.07;;
49215;Laerm;45943;53.148;8.204;2023-03-05T03:10:37;40.77;36.80;45.33;;
49215;Laerm;45943;53.148;8.204;2023-03-05T03:13:02;41.52;37.29;51.52;;
49215;Laerm;45943;53.148;8.204;2023-03-05T03:15:29;43.52;36.80;56.54;;
49215;Laerm;45943;53.148;8.204;2023-03-05T03:17:55;40.46;37.05;44.50;;
49215;Laerm;45943;53.148;8.204;2023-03-05T03:20:20;40.31;36.26;47.70;;
49215;Laerm;45943;53.148;8.204;2023-03-05T03:22:46;40.29;35.29;50.56;;
49215;Laerm;45943;53.148;8.204;2023-03-05T03:25:15;49.58;35.96;64.57;;
49215;Laerm;45943;53.148;8.204;2023-03-05T03:27:41;40.83;36.54;53.90;;
49215;Laerm;45943;53.148;8.204;2023-03-05T03:30:08;39.80;34.91;51.06;;
49215;Laerm;45943;53.148;8.204;2023-03-05T03:32:34;39.71;34.91;44.87;;
49215;Laerm;45943;53.148;8.204;2023-03-05T03:35:00;40.35;35.96;44.41;;
49215;Laerm;45943;53.148;8.204;2023-03-05T03:37:26;40.12;35.29;44.41;;
49215;Laerm;45943;53.148;8.204;2023-03-05T03:39:52;39.90;36.26;49.23;;
49215;Laerm;45943;53.148;8.204;2023-03-05T03:42:19;39.61;35.29;45.93;;
49215;Laerm;45943;53.148;8.204;2023-03-05T03:44:46;40.53;35.29;52.62;;
49215;Laerm;45943;53.148;8.204;2023-03-05T03:47:12;40.22;35.29;45.67;;
49215;Laerm;45943;53.148;8.204;2023-03-05T03:49:38;39.81;35.96;47.33;;
49215;Laerm;45943;53.148;8.204;2023-03-05T03:52:05;39.64;34.91;50.74;;
49215;Laerm;45943;53.148;8.204;2023-03-05T03:54:31;39.69;35.29;51.66;;
49215;Laerm;45943;53.148;8.204;2023-03-05T03:56:57;40.71;35.29;45.50;;
49215;Laerm;45943;53.148;8.204;2023-03-05T03:59:23;41.68;38.30;46.70;;
49215;Laerm;45943;53.148;8.204;2023-03-05T04:01:49;41.40;37.05;48.00;;
49215;Laerm;45943;53.148;8.204;2023-03-05T04:04:15;42.00;37.72;45.83;;
49215;Laerm;45943;53.148;8.204;2023-03-05T04:06:42;41.15;37.72;44.75;;
49215;Laerm;45943;53.148;8.204;2023-03-05T04:09:08;40.85;37.05;52.10;;
49215;Laerm;45943;53.148;8.204;2023-03-05T04:11:35;40.23;36.54;44.79;;
49215;Laerm;45943;53.148;8.204;2023-03-05T04:14:03;40.82;36.26;46.32;;
49215;Laerm;45943;53.148;8.204;2023-03-05T04:16:29;46.42;36.80;69.64;;
49215;Laerm;45943;53.148;8.204;2023-03-05T04:18:56;40.34;35.96;43.69;;
49215;Laerm;45943;53.148;8.204;2023-03-05T04:21:22;40.35;36.54;42.82;;
49215;Laerm;45943;53.148;8.204;2023-03-05T04:23:48;41.32;37.05;48.67;;
49215;Laerm;45943;53.148;8.204;2023-03-05T04:26:14;41.44;37.92;53.30;;
49215;Laerm;45943;53.148;8.204;2023-03-05T04:28:40;40.91;37.29;44.63;;
49215;Laerm;45943;53.148;8.204;2023-03-05T04:31:06;48.39;38.30;65.29;;
49215;Laerm;45943;53.148;8.204;2023-03-05T04:33:32;41.32;38.30;45.74;;
49215;Laerm;45943;53.148;8.204;2023-03-05T04:35:58;41.53;37.92;46.08;;
49215;Laerm;45943;53.148;8.204;2023-03-05T04:38:24;49.29;37.92;67.37;;
49215;Laerm;45943;53.148;8.204;2023-03-05T04:40:50;41.01;37.92;45.54;;
49215;Laerm;45943;53.148;8.204;2023-03-05T04:43:16;41.31;38.48;57.84;;
49215;Laerm;45943;53.148;8.204;2023-03-05T04:45:42;44.27;37.92;58.36;;
49215;Laerm;45943;53.148;8.204;2023-03-05T04:48:09;41.71;38.48;63.11;;
49215;Laerm;45943;53.148;8.204;2023-03-05T04:50:36;42.59;38.97;50.81;;
49215;Laerm;45943;53.148;8.204;2023-03-05T04:53:02;46.11;38.97;61.71;;
49215;Laerm;45943;53.148;8.204;2023-03-05T04:55:29;42.62;37.92;54.72;;
49215;Laerm;45943;53.148;8.204;2023-03-05T04:57:55;42.38;37.72;52.79;;
49215;Laerm;45943;53.148;8.204;2023-03-05T05:00:21;42.52;37.29;55.60;;
49215;Laerm;45943;53.148;8.204;2023-03-05T05:02:49;42.27;37.29;53.87;;
49215;Laerm;45943;53.148;8.204;2023-03-05T05:05:18;41.96;37.92;50.85;;
49215;Laerm;45943;53.148;8.204;2023-03-05T05:07:45;42.37;37.51;54.01;;
49215;Laerm;45943;53.148;8.204;2023-03-05T05:10:12;42.48;37.72;54.85;;
49215;Laerm;45943;53.148;8.204;2023-03-05T05:12:39;42.85;38.48;54.01;;
49215;Laerm;45943;53.148;8.204;2023-03-05T05:15:06;48.40;38.48;65.39;;
49215;Laerm;45943;53.148;8.204;2023-03-05T05:17:33;50.10;38.12;70.16;;
49215;Laerm;45943;53.148;8.204;2023-03-05T05:20:00;49.01;39.12;64.52;;
49215;Laerm;45943;53.148;8.204;2023-03-05T05:22:27;44.19;38.81;53.88;;
49215;Laerm;45943;53.148;8.204;2023-03-05T05:24:54;43.16;38.65;55.16;;
49215;Laerm;45943;53.148;8.204;2023-03-05T05:27:21;45.66;38.30;65.38;;
49215;Laerm;45943;53.148;8.204;2023-03-05T05:29:47;44.16;39.12;60.10;;
49215;Laerm;45943;53.148;8.204;2023-03-05T05:32:22;52.33;38.81;72.06;;
49215;Laerm;45943;53.148;8.204;2023-03-05T05:34:55;45.43;39.12;63.38;;
49215;Laerm;45943;53.148;8.204;2023-03-05T05:37:23;48.79;38.78;66.92;;
49215;Laerm;45943;53.148;8.204;2023-03-05T05:39:49;51.24;40.30;65.54;;
49215;Laerm;45943;53.148;8.204;2023-03-05T05:42:21;45.14;38.65;60.60;;
49215;Laerm;45943;53.148;8.204;2023-03-05T05:44:48;43.36;38.12;54.96;;
49215;Laerm;45943;53.148;8.204;2023-03-05T05:47:15;42.78;38.65;52.37;;
49215;Laerm;45943;53.148;8.204;2023-03-05T05:49:41;42.13;39.41;53.16;;
49215;Laerm;45943;53.148;8.204;2023-03-05T05:52:08;42.48;39.59;49.26;;
49215;Laerm;45943;53.148;8.204;2023-03-05T05:54:34;42.45;39.12;47.60;;
49215;Laerm;45943;53.148;8.204;2023-03-05T05:57:00;47.66;39.55;63.96;;
49215;Laerm;45943;53.148;8.204;2023-03-05T05:59:26;47.99;39.68;63.61;;
49215;Laerm;45943;53.148;8.204;2023-03-05T06:01:52;43.84;40.52;59.91;;
49215;Laerm;45943;53.148;8.204;2023-03-05T06:04:18;43.40;39.94;54.28;;
49215;Laerm;45943;53.148;8.204;2023-03-05T06:06:44;43.11;40.06;49.67;;
49215;Laerm;45943;53.148;8.204;2023-03-05T06:09:10;43.98;40.52;56.07;;
49215;Laerm;45943;53.148;8.204;2023-03-05T06:11:36;46.16;41.03;62.26;;
49215;Laerm;45943;53.148;8.204;2023-03-05T06:14:03;42.91;39.94;50.27;;
49215;Laerm;45943;53.148;8.204;2023-03-05T06:16:29;47.56;40.28;60.66;;
49215;Laerm;45943;53.148;8.204;2023-03-05T06:18:55;48.65;40.73;66.02;;
49215;Laerm;45943;53.148;8.204;2023-03-05T06:21:21;55.74;40.83;72.66;;
49215;Laerm;45943;53.148;8.204;2023-03-05T06:23:48;46.93;40.52;60.61;;
49215;Laerm;45943;53.148;8.204;2023-03-05T06:26:19;49.65;40.30;65.44;;
49215;Laerm;45943;53.148;8.204;2023-03-05T06:28:45;47.29;40.63;60.80;;
49215;Laerm;45943;53.148;8.204;2023-03-05T06:31:16;46.80;40.93;60.94;;
49215;Laerm;45943;53.148;8.204;2023-03-05T06:33:42;44.19;40.30;54.55;;
49215;Laerm;45943;53.148;8.204;2023-03-05T06:36:11;45.30;40.18;62.59;;
49215;Laerm;45943;53.148;8.204;2023-03-05T06:38:38;55.43;40.93;73.78;;
49215;Laerm;45943;53.148;8.204;2023-03-05T06:41:07;52.56;41.03;72.85;;
49215;Laerm;45943;53.148;8.204;2023-03-05T06:43:38;42.86;40.52;46.11;;
49215;Laerm;45943;53.148;8.204;2023-03-05T06:46:07;43.89;41.13;59.25;;
49215;Laerm;45943;53.148;8.204;2023-03-05T06:48:33;43.40;39.81;53.94;;
49215;Laerm;45943;53.148;8.204;2023-03-05T06:50:59;45.89;40.41;64.69;;
49215;Laerm;45943;53.148;8.204;2023-03-05T06:53:25;45.80;40.18;60.14;;
49215;Laerm;45943;53.148;8.204;2023-03-05T06:55:52;45.40;39.81;60.48;;
49215;Laerm;45943;53.148;8.204;2023-03-05T06:58:19;50.64;40.18;63.54;;
49215;Laerm;45943;53.148;8.204;2023-03-05T07:00:45;48.40;39.27;61.55;;
49215;Laerm;45943;53.148;8.204;2023-03-05T07:03:11;61.68;39.94;92.28;;
49215;Laerm;45943;53.148;8.204;2023-03-05T07:05:38;51.29;39.55;79.35;;
49215;Laerm;45943;53.148;8.204;2023-03-05T07:08:04;58.56;38.81;85.58;;
49215;Laerm;45943;53.148;8.204;2023-03-05T07:10:30;62.88;39.12;93.15;;
49215;Laerm;45943;53.148;8.204;2023-03-05T07:12:56;60.13;38.65;83.85;;
49215;Laerm;45943;53.148;8.204;2023-03-05T07:15:23;58.06;38.65;83.30;;
49215;Laerm;45943;53.148;8.204;2023-03-05T07:17:49;60.94;39.12;85.55;;
49215;Laerm;45943;53.148;8.204;2023-03-05T07:20:15;47.86;39.41;70.09;;
49215;Laerm;45943;53.148;8.204;2023-03-05T07:22:41;57.76;40.73;84.16;;
49215;Laerm;45943;53.148;8.204;2023-03-05T07:25:07;53.70;39.94;74.34;;
49215;Laerm;45943;53.148;8.204;2023-03-05T07:27:35;51.39;39.27;75.10;;
49215;Laerm;45943;53.148;8.204;2023-03-05T07:30:01;52.19;39.55;77.76;;
49215;Laerm;45943;53.148;8.204;2023-03-05T07:32:27;51.98;39.12;82.04;;
49215;Laerm;45943;53.148;8.204;2023-03-05T07:34:53;42.99;39.27;52.27;;
49215;Laerm;45943;53.148;8.204;2023-03-05T07:37:19;44.20;40.18;59.36;;
49215;Laerm;45943;53.148;8.204;2023-03-05T07:39:45;55.81;40.30;70.82;;
49215;Laerm;45943;53.148;8.204;2023-03-05T07:42:11;47.10;40.41;61.00;;
49215;Laerm;45943;53.148;8.204;2023-03-05T07:44:37;48.44;39.27;61.77;;
49215;Laerm;45943;53.148;8.204;2023-03-05T07:47:04;47.45;38.12;62.26;;
49215;Laerm;45943;53.148;8.204;2023-03-05T07:49:30;65.10;39.27;92.50;;
49215;Laerm;45943;53.148;8.204;2023-03-05T07:51:56;63.36;39.55;88.48;;
49215;Laerm;45943;53.148;8.204;2023-03-05T07:54:22;48.65;39.94;68.05;;
49215;Laerm;45943;53.148;8.204;2023-03-05T07:56:48;64.80;39.55;85.37;;
49215;Laerm;45943;53.148;8.204;2023-03-05T07:59:14;62.50;54.58;78.02;;
49215;Laerm;45943;53.148;8.204;2023-03-05T08:01:40;58.97;39.55;85.14;;
49215;Laerm;45943;53.148;8.204;2023-03-05T08:04:06;50.56;38.48;67.18;;
49215;Laerm;45943;53.148;8.204;2023-03-05T08:06:33;44.26;38.30;57.60;;
49215;Laerm;45943;53.148;8.204;2023-03-05T08:08:59;50.02;38.97;71.16;;
49215;Laerm;45943;53.148;8.204;2023-03-05T08:11:26;49.15;38.97;65.26;;
49215;Laerm;45943;53.148;8.204;2023-03-05T08:13:53;55.72;38.12;74.37;;
49215;Laerm;45943;53.148;8.204;2023-03-05T08:16:20;54.35;38.65;73.06;;
49215;Laerm;45943;53.148;8.204;2023-03-05T08:18:47;49.19;39.27;68.19;;
49215;Laerm;45943;53.148;8.204;2023-03-05T08:21:18;53.53;39.12;68.82;;
49215;Laerm;45943;53.148;8.204;2023-03-05T08:23:44;50.11;39.12;67.10;;
49215;Laerm;45943;53.148;8.204;2023-03-05T08:26:16;51.72;41.82;67.96;;
49215;Laerm;45943;53.148;8.204;2023-03-05T08:28:42;45.62;41.56;52.89;;
49215;Laerm;45943;53.148;8.204;2023-03-05T08:31:09;44.38;39.12;56.02;;
49215;Laerm;45943;53.148;8.204;2023-03-05T08:33:37;50.81;38.48;68.04;;
49215;Laerm;45943;53.148;8.204;2023-03-05T08:36:03;47.37;39.27;66.88;;
49215;Laerm;45943;53.148;8.204;2023-03-05T08:38:29;49.57;38.97;66.84;;
49215;Laerm;45943;53.148;8.204;2023-03-05T08:40:55;50.69;39.27;68.67;;
49215;Laerm;45943;53.148;8.204;2023-03-05T08:43:21;42.39;39.41;55.51;;
49215;Laerm;45943;53.148;8.204;2023-03-05T08:45:47;50.72;39.12;65.13;;
49215;Laerm;45943;53.148;8.204;2023-03-05T08:48:14;50.50;40.18;63.76;;
49215;Laerm;45943;53.148;8.204;2023-03-05T08:50:40;47.74;39.94;61.48;;
49215;Laerm;45943;53.148;8.204;2023-03-05T08:53:06;48.43;39.81;61.70;;
49215;Laerm;45943;53.148;8.204;2023-03-05T08:55:33;46.28;39.94;61.07;;
49215;Laerm;45943;53.148;8.204;2023-03-05T08:57:59;53.35;41.03;71.82;;
49215;Laerm;45943;53.148;8.204;2023-03-05T09:00:25;51.72;41.22;75.57;;
49215;Laerm;45943;53.148;8.204;2023-03-05T09:02:51;45.20;40.30;58.68;;
49215;Laerm;45943;53.148;8.204;2023-03-05T09:05:17;55.87;40.73;71.11;;
49215;Laerm;45943;53.148;8.204;2023-03-05T09:07:44;50.98;40.93;66.62;;
49215;Laerm;45943;53.148;8.204;2023-03-05T09:10:11;49.21;40.41;65.44;;
49215;Laerm;45943;53.148;8.204;2023-03-05T09:12:38;43.84;41.22;56.26;;
49215;Laerm;45943;53.148;8.204;2023-03-05T09:15:06;50.77;40.93;67.34;;
49215;Laerm;45943;53.148;8.204;2023-03-05T09:17:34;48.18;40.06;65.24;;
49215;Laerm;45943;53.148;8.204;2023-03-05T09:20:00;55.67;40.83;73.44;;
49215;Laerm;45943;53.148;8.204;2023-03-05T09:22:27;54.64;40.38;69.71;;
49215;Laerm;45943;53.148;8.204;2023-03-05T09:24:53;52.28;40.83;70.72;;
49215;Laerm;45943;53.148;8.204;2023-03-05T09:27:19;51.62;40.93;68.15;;
49215;Laerm;45943;53.148;8.204;2023-03-05T09:29:45;47.12;40.93;62.47;;
49215;Laerm;45943;53.148;8.204;2023-03-05T09:32:11;45.61;40.49;60.39;;
49215;Laerm;45943;53.148;8.204;2023-03-05T09:34:37;50.17;40.63;65.02;;
49215;Laerm;45943;53.148;8.204;2023-03-05T09:37:03;49.84;43.19;64.57;;
49215;Laerm;45943;53.148;8.204;2023-03-05T09:39:29;50.69;39.59;67.06;;
49215;Laerm;45943;53.148;8.204;2023-03-05T09:52:39;52.89;41.03;71.11;;
49215;Laerm;45943;53.148;8.204;2023-03-05T09:55:36;51.54;41.22;66.79;;
49215;Laerm;45943;53.148;8.204;2023-03-05T09:58:15;51.76;40.06;69.36;;
49215;Laerm;45943;53.148;8.204;2023-03-05T10:00:50;51.70;40.78;65.70;;
49215;Laerm;45943;53.148;8.204;2023-03-05T10:03:21;51.60;42.28;67.06;;
49215;Laerm;45943;53.148;8.204;2023-03-05T10:06:10;61.83;45.07;75.22;;
49215;Laerm;45943;53.148;8.204;2023-03-05T10:09:05;51.06;41.31;66.73;;
49215;Laerm;45943;53.148;8.204;2023-03-05T10:14:31;48.34;40.93;66.00;;
49215;Laerm;45943;53.148;8.204;2023-03-05T10:23:22;51.39;41.31;67.50;;
49215;Laerm;45943;53.148;8.204;2023-03-05T10:28:56;52.62;41.13;68.94;;
49215;Laerm;45943;53.148;8.204;2023-03-05T10:31:49;52.72;41.03;71.38;;
49215;Laerm;45943;53.148;8.204;2023-03-05T10:34:30;50.32;41.13;67.71;;
49215;Laerm;45943;53.148;8.204;2023-03-05T10:40:29;54.97;40.41;71.69;;
49215;Laerm;45943;53.148;8.204;2023-03-05T10:43:16;51.26;41.03;70.00;;
49215;Laerm;45943;53.148;8.204;2023-03-05T10:45:47;50.45;41.66;68.69;;
49215;Laerm;45943;53.148;8.204;2023-03-05T10:51:33;47.11;42.28;61.78;;
49215;Laerm;45943;53.148;8.204;2023-03-05T10:54:13;52.32;41.40;65.73;;
49215;Laerm;45943;53.148;8.204;2023-03-05T10:56:43;48.47;41.13;63.36;;
49215;Laerm;45943;53.148;8.204;2023-03-05T10:59:09;45.10;41.90;56.45;;
49215;Laerm;45943;53.148;8.204;2023-03-05T11:01:35;52.22;41.66;71.76;;
49215;Laerm;45943;53.148;8.204;2023-03-05T11:04:07;48.04;41.74;63.00;;
49215;Laerm;45943;53.148;8.204;2023-03-05T11:06:49;51.09;42.13;66.20;;
49215;Laerm;45943;53.148;8.204;2023-03-05T11:09:29;48.56;42.56;66.87;;
49215;Laerm;45943;53.148;8.204;2023-03-05T11:12:10;49.90;42.42;69.64;;
49215;Laerm;45943;53.148;8.204;2023-03-05T11:17:33;48.48;40.06;66.63;;
49215;Laerm;45943;53.148;8.204;2023-03-05T11:20:27;52.91;41.40;70.53;;
49215;Laerm;45943;53.148;8.204;2023-03-05T11:28:41;48.26;41.90;67.51;;
49215;Laerm;45943;53.148;8.204;2023-03-05T11:31:23;52.45;41.40;66.26;;
49215;Laerm;45943;53.148;8.204;2023-03-05T11:36:32;54.29;41.31;71.33;;
49215;Laerm;45943;53.148;8.204;2023-03-05T11:41:39;56.02;39.55;86.65;;
49215;Laerm;45943;53.148;8.204;2023-03-05T11:44:18;48.00;41.31;63.61;;
49215;Laerm;45943;53.148;8.204;2023-03-05T11:46:49;45.84;41.13;58.10;;
49215;Laerm;45943;53.148;8.204;2023-03-05T11:49:20;61.77;41.03;79.83;;
49215;Laerm;45943;53.148;8.204;2023-03-05T11:55:05;51.68;42.06;72.11;;
49215;Laerm;45943;53.148;8.204;2023-03-05T11:57:41;54.62;43.07;69.92;;
49215;Laerm;45943;53.148;8.204;2023-03-05T12:00:15;54.38;42.56;71.76;;
49215;Laerm;45943;53.148;8.204;2023-03-05T12:02:42;51.11;40.18;72.17;;
49215;Laerm;45943;53.148;8.204;2023-03-05T12:05:14;46.88;40.28;64.05;;
49215;Laerm;45943;53.148;8.204;2023-03-05T12:07:45;50.29;40.41;69.72;;
49215;Laerm;45943;53.148;8.204;2023-03-05T12:10:15;52.32;41.13;68.63;;
49215;Laerm;45943;53.148;8.204;2023-03-05T12:21:16;50.52;43.07;67.49;;
49215;Laerm;45943;53.148;8.204;2023-03-05T12:23:54;51.36;43.84;66.33;;
49215;Laerm;45943;53.148;8.204;2023-03-05T12:29:27;51.85;42.21;72.15;;
49215;Laerm;45943;53.148;8.204;2023-03-05T12:31:54;50.44;41.49;65.29;;
49215;Laerm;45943;53.148;8.204;2023-03-05T12:37:12;54.70;40.06;72.70;;
49215;Laerm;45943;53.148;8.204;2023-03-05T12:47:38;51.18;40.52;66.89;;
49215;Laerm;45943;53.148;8.204;2023-03-05T12:50:07;47.65;39.55;64.91;;
49215;Laerm;45943;53.148;8.204;2023-03-05T12:52:51;53.35;41.66;68.27;;
49215;Laerm;45943;53.148;8.204;2023-03-05T12:55:34;51.87;40.52;68.68;;
49215;Laerm;45943;53.148;8.204;2023-03-05T13:00:52;44.79;40.49;57.24;;
49215;Laerm;45943;53.148;8.204;2023-03-05T13:03:27;50.13;41.22;66.35;;
49215;Laerm;45943;53.148;8.204;2023-03-05T13:05:57;52.93;41.22;68.45;;
49215;Laerm;45943;53.148;8.204;2023-03-05T13:08:28;54.31;41.31;68.67;;
49215;Laerm;45943;53.148;8.204;2023-03-05T13:11:17;53.39;43.53;66.32;;
49215;Laerm;45943;53.148;8.204;2023-03-05T13:13:46;53.71;41.98;68.87;;
49215;Laerm;45943;53.148;8.204;2023-03-05T13:16:18;52.10;40.83;69.44;;
49215;Laerm;45943;53.148;8.204;2023-03-05T13:18:46;53.12;42.69;67.60;;
49215;Laerm;45943;53.148;8.204;2023-03-05T13:21:17;57.36;41.49;70.25;;
49215;Laerm;45943;53.148;8.204;2023-03-05T13:23:53;55.03;40.73;70.11;;
49215;Laerm;45943;53.148;8.204;2023-03-05T13:29:12;51.01;40.18;67.85;;
49215;Laerm;45943;53.148;8.204;2023-03-05T13:31:47;56.99;40.63;78.03;;
49215;Laerm;45943;53.148;8.204;2023-03-05T13:34:23;52.36;40.30;69.11;;
49215;Laerm;45943;53.148;8.204;2023-03-05T13:39:29;61.60;47.80;72.98;;
49215;Laerm;45943;53.148;8.204;2023-03-05T13:42:06;55.76;40.73;76.49;;
49215;Laerm;45943;53.148;8.204;2023-03-05T13:44:39;53.61;40.73;72.49;;
49215;Laerm;45943;53.148;8.204;2023-03-05T13:47:19;52.15;40.52;69.56;;
49215;Laerm;45943;53.148;8.204;2023-03-05T13:49:46;51.52;41.74;64.40;;
49215;Laerm;45943;53.148;8.204;2023-03-05T13:52:23;50.05;41.40;65.90;;
49215;Laerm;45943;53.148;8.204;2023-03-05T13:54:49;65.94;41.31;81.95;;
49215;Laerm;45943;53.148;8.204;2023-03-05T14:00:06;49.44;41.14;63.01;;
49215;Laerm;45943;53.148;8.204;2023-03-05T14:02:49;49.64;41.40;63.54;;
49215;Laerm;45943;53.148;8.204;2023-03-05T14:05:15;48.25;41.82;64.27;;
49215;Laerm;45943;53.148;8.204;2023-03-05T14:07:41;44.21;41.31;50.69;;
49215;Laerm;45943;53.148;8.204;2023-03-05T14:13:03;50.94;41.31;67.71;;
49215;Laerm;45943;53.148;8.204;2023-03-05T14:15:32;54.57;42.06;70.90;;
49215;Laerm;45943;53.148;8.204;2023-03-05T14:21:05;58.07;42.89;72.06;;
49215;Laerm;45943;53.148;8.204;2023-03-05T14:28:53;53.32;41.58;64.49;;
49215;Laerm;45943;53.148;8.204;2023-03-05T14:31:21;47.01;40.73;59.07;;
49215;Laerm;45943;53.148;8.204;2023-03-05T14:33:48;48.32;40.06;62.79;;
49215;Laerm;45943;53.148;8.204;2023-03-05T14:36:21;48.32;40.73;62.42;;
49215;Laerm;45943;53.148;8.204;2023-03-05T14:38:48;58.38;40.93;77.63;;
49215;Laerm;45943;53.148;8.204;2023-03-05T14:44:00;48.83;41.49;67.19;;
49215;Laerm;45943;53.148;8.204;2023-03-05T14:46:27;50.61;41.90;66.20;;
49215;Laerm;45943;53.148;8.204;2023-03-05T14:48:53;51.36;42.42;67.66;;
49215;Laerm;45943;53.148;8.204;2023-03-05T14:51:19;47.54;41.98;58.66;;
49215;Laerm;45943;53.148;8.204;2023-03-05T14:53:47;48.38;42.21;63.00;;
49215;Laerm;45943;53.148;8.204;2023-03-05T14:56:21;49.09;42.28;63.41;;
49215;Laerm;45943;53.148;8.204;2023-03-05T14:58:48;50.23;41.74;63.16;;
49215;Laerm;45943;53.148;8.204;2023-03-05T15:01:14;48.84;41.90;60.72;;
49215;Laerm;45943;53.148;8.204;2023-03-05T15:03:40;51.31;41.90;70.86;;
49215;Laerm;45943;53.148;8.204;2023-03-05T15:06:16;49.22;42.06;61.58;;
49215;Laerm;45943;53.148;8.204;2023-03-05T15:08:43;48.23;41.49;65.63;;
49215;Laerm;45943;53.148;8.204;2023-03-05T15:11:09;52.17;41.22;65.59;;
49215;Laerm;45943;53.148;8.204;2023-03-05T15:13:35;48.98;41.66;61.49;;
49215;Laerm;45943;53.148;8.204;2023-03-05T15:16:03;50.80;41.03;65.87;;
49215;Laerm;45943;53.148;8.204;2023-03-05T15:18:29;53.18;41.66;83.47;;
49215;Laerm;45943;53.148;8.204;2023-03-05T15:20:55;54.10;42.63;69.93;;
49215;Laerm;45943;53.148;8.204;2023-03-05T15:23:22;50.44;42.21;62.20;;
49215;Laerm;45943;53.148;8.204;2023-03-05T15:25:49;51.04;41.49;70.07;;
49215;Laerm;45943;53.148;8.204;2023-03-05T15:28:15;52.46;41.74;65.49;;